Time;durP1;ratioP1;P1;durP2;ratioP2;P2;SDS_P1;SDS_P2;PMS_P1;PMS_P2;Temp;Humidity;BMP_temperature;BMP_pressure;BME280_temperature;BME280_humidity;BME280_pressure;Samples;Min_cycle;Max_cycle;Signal;HPM_P1;HPM_P2
2022/12/28 00:00:21;;;;;;;4.93;3.00;;;9.70;99.90;;;;;;4976456;28;20025;-86
2022/12/28 00:02:47;;;;;;;4.57;2.55;;;9.80;99.90;;;;;;4965239;28;20105;-87
2022/12/28 00:05:12;;;;;;;3.53;2.00;;;9.80;99.90;;;;;;4980964;28;20038;-86
2022/12/28 00:07:38;;;;;;;4.27;2.00;;;9.80;99.90;;;;;;4956106;28;20996;-86
2022/12/28 00:10:04;;;;;;;5.32;2.28;;;9.80;99.90;;;;;;4973259;28;20584;-88
2022/12/28 00:12:31;;;;;;;4.10;2.20;;;9.80;99.90;;;;;;4956815;28;20039;-87
2022/12/28 00:14:58;;;;;;;3.72;2.50;;;9.80;99.90;;;;;;4987110;28;20417;-87
2022/12/28 00:17:24;;;;;;;5.45;2.50;;;9.80;99.90;;;;;;4974410;28;20394;-86
2022/12/28 00:19:49;;;;;;;4.97;2.03;;;9.80;99.90;;;;;;4972754;28;20338;-87
2022/12/28 00:22:15;;;;;;;5.17;2.50;;;9.80;99.90;;;;;;4952059;28;20137;-87
2022/12/28 00:24:41;;;;;;;3.97;2.33;;;9.80;99.90;;;;;;4950108;28;20152;-86
2022/12/28 00:27:07;;;;;;;5.20;2.50;;;9.80;99.90;;;;;;4993665;28;20036;-87
2022/12/28 00:29:33;;;;;;;3.03;1.92;;;9.90;99.90;;;;;;4953799;28;20048;-88
2022/12/28 00:31:58;;;;;;;4.13;2.28;;;9.90;99.90;;;;;;4973247;28;20109;-87
2022/12/28 00:34:24;;;;;;;4.80;2.67;;;9.90;99.90;;;;;;5005727;28;20112;-86
2022/12/28 00:36:51;;;;;;;4.32;2.10;;;9.90;99.90;;;;;;4940503;28;20299;-87
2022/12/28 00:39:19;;;;;;;4.13;2.40;;;9.90;99.90;;;;;;4966498;28;20090;-88
2022/12/28 00:41:44;;;;;;;4.27;2.20;;;9.90;99.90;;;;;;4988875;28;20390;-86
2022/12/28 00:44:10;;;;;;;4.75;2.40;;;9.90;99.90;;;;;;4970159;28;20063;-87
2022/12/28 00:46:37;;;;;;;4.50;2.80;;;10.00;99.90;;;;;;4986404;28;20030;-87
2022/12/28 00:49:03;;;;;;;4.18;2.53;;;10.00;99.90;;;;;;5008614;28;20044;-87
2022/12/28 00:51:29;;;;;;;4.72;2.83;;;10.00;99.90;;;;;;4982422;28;20041;-87
2022/12/28 00:53:55;;;;;;;5.27;3.00;;;10.00;99.90;;;;;;4971291;28;20129;-86
2022/12/28 00:56:22;;;;;;;5.07;2.75;;;10.00;99.90;;;;;;4987501;28;20024;-89
2022/12/28 00:58:54;;;;;;;5.78;2.97;;;10.00;99.90;;;;;;4948219;28;20071;-86
2022/12/28 01:01:21;;;;;;;4.28;2.38;;;10.00;99.90;;;;;;4983610;28;20018;-86
2022/12/28 01:03:48;;;;;;;3.95;2.45;;;10.00;99.90;;;;;;4967810;28;20976;-87
2022/12/28 01:06:17;;;;;;;3.83;2.37;;;10.10;99.90;;;;;;4978631;28;20076;-87
2022/12/28 01:08:43;;;;;;;3.78;2.13;;;10.10;99.90;;;;;;4963063;28;20191;-86
2022/12/28 01:11:18;;;;;;;3.03;2.10;;;10.20;99.90;;;;;;4967202;28;20030;-88
2022/12/28 01:13:44;;;;;;;3.78;2.00;;;10.10;99.90;;;;;;4962223;28;20551;-85
2022/12/28 01:16:12;;;;;;;3.60;2.10;;;10.20;99.90;;;;;;4991821;28;20045;-87
2022/12/28 01:18:38;;;;;;;4.30;2.30;;;10.20;99.90;;;;;;4969837;28;20033;-87
2022/12/28 01:21:10;;;;;;;4.00;2.30;;;10.20;99.90;;;;;;5006009;28;20029;-87
2022/12/28 01:23:36;;;;;;;4.53;2.40;;;10.20;99.90;;;;;;4970836;28;20316;-87
2022/12/28 01:26:02;;;;;;;3.27;2.10;;;10.20;99.90;;;;;;4973121;28;20492;-87
2022/12/28 01:28:28;;;;;;;3.83;2.30;;;10.30;99.90;;;;;;5006545;28;20892;-84
2022/12/28 01:30:54;;;;;;;4.43;2.40;;;10.30;99.90;;;;;;4969809;28;20878;-87
2022/12/28 01:33:20;;;;;;;3.90;2.13;;;10.30;99.90;;;;;;4969683;28;20112;-87
2022/12/28 01:35:46;;;;;;;3.37;2.10;;;10.30;99.90;;;;;;4975608;28;20278;-86
2022/12/28 01:38:12;;;;;;;4.85;2.40;;;10.30;99.90;;;;;;4984809;28;20137;-88
2022/12/28 01:40:42;;;;;;;3.97;2.60;;;10.30;99.90;;;;;;4975902;28;20433;-87
2022/12/28 01:43:13;;;;;;;4.38;2.50;;;10.30;99.90;;;;;;4978340;28;20030;-88
2022/12/28 01:45:41;;;;;;;4.20;2.50;;;10.40;99.90;;;;;;4949613;28;20033;-87
2022/12/28 01:48:19;;;;;;;3.40;2.20;;;10.30;99.90;;;;;;4981157;28;20061;-87
2022/12/28 01:50:46;;;;;;;3.47;2.30;;;10.40;99.90;;;;;;4999635;28;20033;-88
2022/12/28 01:53:12;;;;;;;6.10;2.63;;;10.40;99.90;;;;;;4974519;28;20034;-86
2022/12/28 01:55:41;;;;;;;5.53;2.63;;;10.40;99.90;;;;;;4957351;28;24089;-87
2022/12/28 01:58:16;;;;;;;4.00;2.38;;;10.40;99.90;;;;;;4976933;28;20118;-87
2022/12/28 02:00:42;;;;;;;4.00;2.80;;;10.40;99.90;;;;;;4939731;28;20309;-89
2022/12/28 02:03:15;;;;;;;3.90;2.55;;;10.50;99.90;;;;;;4970956;28;20030;-87
2022/12/28 02:05:45;;;;;;;5.20;2.80;;;10.50;99.90;;;;;;4968078;28;20464;-87
2022/12/28 02:08:43;;;;;;;4.00;2.90;;;10.50;99.90;;;;;;4978840;28;20037;-87
2022/12/28 02:11:14;;;;;;;3.78;2.65;;;10.50;99.90;;;;;;4987093;28;20041;-86
2022/12/28 02:13:44;;;;;;;5.35;2.90;;;10.50;99.90;;;;;;4954244;28;20278;-87
2022/12/28 02:16:11;;;;;;;5.35;2.60;;;10.50;99.90;;;;;;4950814;28;20066;-88
2022/12/28 02:18:38;;;;;;;4.00;2.60;;;10.50;99.90;;;;;;4951860;28;20159;-88
2022/12/28 02:21:16;;;;;;;4.13;2.45;;;10.50;99.90;;;;;;4966018;28;20033;-86
2022/12/28 02:23:42;;;;;;;3.63;2.60;;;10.50;99.90;;;;;;4964159;28;20017;-86
2022/12/28 02:26:30;;;;;;;3.67;2.50;;;10.50;99.90;;;;;;4984426;28;20033;-86
2022/12/28 02:29:34;;;;;;;4.30;2.92;;;10.50;99.90;;;;;;4958961;28;20029;-88
2022/12/28 02:32:25;;;;;;;4.38;2.55;;;10.50;99.90;;;;;;4977332;28;20447;-88
2022/12/28 02:35:02;;;;;;;5.80;2.80;;;10.50;99.90;;;;;;4978724;28;20259;-87
2022/12/28 02:37:48;;;;;;;4.75;3.00;;;10.50;99.90;;;;;;4963985;28;20075;-86
2022/12/28 02:40:20;;;;;;;4.67;2.73;;;10.50;99.90;;;;;;4972025;28;20032;-87
2022/12/28 02:42:46;;;;;;;4.07;2.50;;;10.50;99.90;;;;;;4961875;28;20030;-86
2022/12/28 02:51:28;;;;;;;4.55;2.88;;;10.40;99.90;;;;;;4980764;28;20045;-87
2022/12/28 02:54:05;;;;;;;3.63;2.60;;;10.40;99.90;;;;;;4986791;28;20130;-87
2022/12/28 02:56:41;;;;;;;4.57;2.50;;;10.40;99.90;;;;;;4966276;28;20029;-86
2022/12/28 02:59:43;;;;;;;4.95;2.80;;;10.40;99.90;;;;;;4941355;28;20022;-85
2022/12/28 03:02:21;;;;;;;3.83;2.50;;;10.40;99.90;;;;;;4968981;28;20430;-86
2022/12/28 03:05:02;;;;;;;3.70;2.60;;;10.40;99.90;;;;;;4961007;28;20542;-85
2022/12/28 03:10:36;;;;;;;4.93;2.95;;;10.50;99.90;;;;;;4986188;28;20022;-86
2022/12/28 03:13:04;;;;;;;4.22;2.40;;;10.50;99.90;;;;;;4967938;28;20141;-87
2022/12/28 03:15:35;;;;;;;3.78;2.40;;;10.60;99.90;;;;;;4966736;28;20026;-86
2022/12/28 03:32:23;;;;;;;4.18;2.38;;;10.70;99.90;;;;;;4993163;28;20026;-86
2022/12/28 03:34:49;;;;;;;5.27;2.40;;;10.80;99.90;;;;;;4977652;28;20106;-85
2022/12/28 03:37:32;;;;;;;3.88;2.20;;;10.80;99.90;;;;;;4960403;28;20052;-86
2022/12/28 03:40:26;;;;;;;3.30;2.25;;;10.80;99.90;;;;;;4968717;28;20058;-86
2022/12/28 03:46:14;;;;;;;3.33;2.30;;;10.90;99.90;;;;;;4960035;28;20434;-86
2022/12/28 03:48:42;;;;;;;4.90;2.50;;;10.90;99.90;;;;;;4964620;28;20211;-85
2022/12/28 03:51:10;;;;;;;4.28;2.20;;;11.00;99.90;;;;;;4972496;28;20409;-87
2022/12/28 03:53:39;;;;;;;3.80;1.90;;;10.90;99.90;;;;;;4957263;28;20718;-86
2022/12/28 03:56:10;;;;;;;3.22;1.90;;;11.00;99.90;;;;;;4984063;28;20022;-87
2022/12/28 03:58:36;;;;;;;3.47;1.80;;;11.00;99.90;;;;;;4979559;28;20612;-87
2022/12/28 04:01:01;;;;;;;4.25;2.00;;;11.00;99.90;;;;;;4970067;28;20026;-88
2022/12/28 04:03:27;;;;;;;3.80;2.10;;;11.00;99.90;;;;;;4950654;28;20037;-86
2022/12/28 04:05:54;;;;;;;3.67;2.00;;;11.00;99.90;;;;;;4985101;28;20552;-86
2022/12/28 04:08:20;;;;;;;2.83;1.92;;;10.90;99.90;;;;;;4953309;28;20516;-86
2022/12/28 04:10:45;;;;;;;3.70;2.00;;;10.90;99.90;;;;;;4986499;28;20065;-88
2022/12/28 04:13:11;;;;;;;5.03;2.20;;;10.90;99.90;;;;;;4982534;28;20030;-87
2022/12/28 04:15:37;;;;;;;3.13;1.80;;;10.90;99.90;;;;;;4965772;28;20144;-88
2022/12/28 04:18:04;;;;;;;3.07;1.90;;;10.90;99.90;;;;;;4961837;28;20120;-86
2022/12/28 04:20:29;;;;;;;3.72;2.10;;;10.80;99.90;;;;;;4973541;28;20554;-87
2022/12/28 04:22:55;;;;;;;3.58;2.08;;;10.80;99.90;;;;;;4967795;28;20025;-84
2022/12/28 04:25:21;;;;;;;3.40;2.30;;;10.80;99.90;;;;;;4948502;28;20030;-88
2022/12/28 04:27:47;;;;;;;4.97;2.40;;;10.80;99.90;;;;;;4970316;28;20367;-86
2022/12/28 04:30:13;;;;;;;4.10;2.22;;;10.80;99.90;;;;;;4991248;28;20026;-87
2022/12/28 04:32:40;;;;;;;3.38;2.00;;;10.80;99.90;;;;;;4959754;28;20251;-87
2022/12/28 04:35:06;;;;;;;2.65;1.95;;;10.70;99.90;;;;;;4988422;28;20029;-87
2022/12/28 04:37:36;;;;;;;4.40;2.20;;;10.80;99.90;;;;;;4957607;28;20037;-86
2022/12/28 04:40:02;;;;;;;3.53;2.08;;;10.80;99.90;;;;;;4954178;28;20557;-88
2022/12/28 04:42:27;;;;;;;4.10;2.10;;;10.70;99.90;;;;;;4954534;28;20066;-86
2022/12/28 04:44:54;;;;;;;3.80;2.07;;;10.70;99.90;;;;;;4985214;28;20037;-87
2022/12/28 04:47:20;;;;;;;4.43;2.17;;;10.80;99.90;;;;;;4972875;28;20034;-88
2022/12/28 04:49:46;;;;;;;4.13;2.10;;;10.70;99.90;;;;;;4979669;28;20065;-86
2022/12/28 04:52:12;;;;;;;4.67;2.27;;;10.70;99.90;;;;;;4993393;28;20476;-88
2022/12/28 04:54:39;;;;;;;3.83;1.92;;;10.70;99.90;;;;;;4962561;28;20503;-86
2022/12/28 04:57:05;;;;;;;3.47;1.70;;;10.80;99.90;;;;;;4991628;28;20052;-86
2022/12/28 04:59:31;;;;;;;4.70;2.10;;;10.70;99.90;;;;;;4975374;28;20472;-86
2022/12/28 05:01:57;;;;;;;2.90;2.00;;;10.70;99.90;;;;;;4976145;28;20025;-87
2022/12/28 05:04:24;;;;;;;3.05;1.90;;;10.80;99.90;;;;;;4956178;28;20575;-87
2022/12/28 05:06:50;;;;;;;4.20;1.95;;;10.80;99.90;;;;;;5001250;28;20288;-86
2022/12/28 05:09:18;;;;;;;3.20;1.80;;;10.80;99.90;;;;;;4969390;28;20018;-87
2022/12/28 05:11:43;;;;;;;3.00;1.85;;;10.80;99.90;;;;;;4970183;28;20235;-86
2022/12/28 05:14:09;;;;;;;4.03;1.90;;;10.70;99.90;;;;;;4986315;28;20034;-87
2022/12/28 05:16:35;;;;;;;5.93;2.22;;;10.70;99.90;;;;;;5001063;28;20038;-85
2022/12/28 05:19:01;;;;;;;5.43;2.00;;;10.70;99.90;;;;;;4971739;28;21812;-87
2022/12/28 05:21:27;;;;;;;2.90;1.75;;;10.70;99.90;;;;;;4966246;28;20103;-86
2022/12/28 05:23:53;;;;;;;5.10;2.20;;;10.70;99.90;;;;;;4969286;28;20025;-87
2022/12/28 05:26:24;;;;;;;3.40;1.80;;;10.80;99.90;;;;;;4967191;28;21084;-87
2022/12/28 05:28:49;;;;;;;4.53;2.10;;;10.80;99.90;;;;;;4967885;28;20308;-88
2022/12/28 05:31:19;;;;;;;2.97;1.80;;;10.80;99.90;;;;;;4989566;28;20018;-86
2022/12/28 05:33:46;;;;;;;4.25;1.80;;;10.80;99.90;;;;;;4998279;28;20022;-86
2022/12/28 05:36:15;;;;;;;3.53;1.85;;;10.80;99.90;;;;;;4957826;28;20061;-87
2022/12/28 05:38:42;;;;;;;5.68;1.70;;;10.90;99.90;;;;;;4984267;28;20056;-88
2022/12/28 05:41:14;;;;;;;3.47;1.47;;;10.90;99.90;;;;;;4969250;28;20034;-87
2022/12/28 05:43:41;;;;;;;3.13;1.30;;;10.90;99.90;;;;;;4966614;28;20270;-88
2022/12/28 05:46:10;;;;;;;3.22;1.40;;;11.00;99.90;;;;;;4984515;28;20046;-86
2022/12/28 05:48:38;;;;;;;2.45;1.50;;;11.00;99.90;;;;;;4982801;28;20093;-87
2022/12/28 05:51:07;;;;;;;2.97;1.60;;;11.00;99.90;;;;;;4969852;28;20058;-85
2022/12/28 05:53:34;;;;;;;3.63;1.50;;;11.10;99.90;;;;;;4977789;28;20018;-86
2022/12/28 05:56:03;;;;;;;3.25;1.30;;;11.20;99.90;;;;;;4975689;28;20034;-86
2022/12/28 05:58:29;;;;;;;3.58;1.45;;;11.20;99.90;;;;;;4943500;28;20018;-86
2022/12/28 06:01:04;;;;;;;4.63;1.60;;;11.20;99.90;;;;;;4967580;28;20033;-87
2022/12/28 06:03:30;;;;;;;3.13;1.52;;;11.30;99.90;;;;;;4943415;28;20025;-87
2022/12/28 06:05:55;;;;;;;3.80;1.40;;;11.30;99.90;;;;;;4986504;28;20479;-87
2022/12/28 06:08:21;;;;;;;2.80;1.50;;;11.30;99.90;;;;;;4939567;28;20698;-86
2022/12/28 06:10:47;;;;;;;3.07;1.37;;;11.40;99.90;;;;;;4969589;28;20575;-87
2022/12/28 06:13:14;;;;;;;3.42;1.40;;;11.40;99.90;;;;;;4942441;28;20471;-87
2022/12/28 06:15:43;;;;;;;3.25;1.40;;;11.40;99.90;;;;;;4952936;28;20117;-87
2022/12/28 06:18:09;;;;;;;6.23;2.50;;;11.50;99.90;;;;;;4977278;28;20034;-86
2022/12/28 06:20:34;;;;;;;4.05;1.90;;;11.50;99.90;;;;;;4988623;28;20223;-86
2022/12/28 06:23:00;;;;;;;4.10;1.67;;;11.50;99.90;;;;;;4968620;28;20033;-86
2022/12/28 06:25:26;;;;;;;3.33;1.50;;;11.50;99.90;;;;;;4975982;28;20056;-88
2022/12/28 06:27:52;;;;;;;4.00;1.25;;;11.60;99.90;;;;;;4946942;28;20021;-87
2022/12/28 06:30:18;;;;;;;2.43;1.30;;;11.60;99.90;;;;;;4987478;28;20176;-86
2022/12/28 06:32:43;;;;;;;2.88;1.30;;;11.60;99.90;;;;;;4984760;28;20056;-87
2022/12/28 06:35:09;;;;;;;2.97;1.40;;;11.60;99.90;;;;;;4957542;28;20033;-87
2022/12/28 06:37:35;;;;;;;2.53;1.45;;;11.60;99.90;;;;;;4933604;28;20108;-86
2022/12/28 06:40:01;;;;;;;2.38;1.42;;;11.60;99.90;;;;;;4964647;28;20034;-86
2022/12/28 06:42:27;;;;;;;2.10;1.30;;;11.60;99.90;;;;;;4959238;28;20037;-86
2022/12/28 06:44:52;;;;;;;3.07;1.30;;;11.60;99.90;;;;;;4948775;28;20749;-87
2022/12/28 06:47:18;;;;;;;2.45;1.23;;;11.70;99.90;;;;;;4966503;28;20469;-85
2022/12/28 06:49:44;;;;;;;2.97;1.40;;;11.60;99.90;;;;;;4983893;28;20195;-87
2022/12/28 06:52:09;;;;;;;2.00;1.38;;;11.60;99.90;;;;;;4952551;28;20038;-87
2022/12/28 06:54:35;;;;;;;3.27;1.27;;;11.60;99.90;;;;;;4935317;28;20360;-87
2022/12/28 06:57:01;;;;;;;3.78;1.45;;;11.70;99.90;;;;;;4956914;28;20376;-85
2022/12/28 06:59:26;;;;;;;3.37;1.40;;;11.60;99.90;;;;;;4937292;28;20026;-87
2022/12/28 07:01:52;;;;;;;4.28;1.50;;;11.70;99.90;;;;;;4956431;28;20022;-86
2022/12/28 07:04:18;;;;;;;3.85;1.33;;;11.70;99.90;;;;;;4958341;28;20030;-86
2022/12/28 07:06:44;;;;;;;3.23;1.30;;;11.70;99.90;;;;;;4948954;28;20509;-86
2022/12/28 07:09:12;;;;;;;3.57;1.50;;;11.70;99.90;;;;;;4957790;28;20105;-85
2022/12/28 07:11:38;;;;;;;3.20;1.30;;;11.70;99.90;;;;;;4952399;28;20269;-87
2022/12/28 07:14:04;;;;;;;2.60;1.40;;;11.70;99.90;;;;;;4974897;28;20030;-85
2022/12/28 07:16:30;;;;;;;3.25;1.40;;;11.70;99.90;;;;;;4936089;28;20017;-87
2022/12/28 07:18:58;;;;;;;3.20;1.60;;;11.70;99.90;;;;;;4956839;28;20019;-84
2022/12/28 07:21:35;;;;;;;4.22;1.40;;;11.70;99.90;;;;;;4966540;28;20438;-85
2022/12/28 07:24:02;;;;;;;4.15;1.77;;;11.80;99.90;;;;;;4962359;28;20019;-86
2022/12/28 07:26:29;;;;;;;4.47;1.50;;;11.80;99.90;;;;;;4935071;28;20277;-85
2022/12/28 07:28:57;;;;;;;3.92;1.58;;;11.80;99.90;;;;;;4973373;28;20010;-87
2022/12/28 07:31:28;;;;;;;2.33;1.33;;;11.80;99.90;;;;;;4938699;28;20478;-84
2022/12/28 07:33:56;;;;;;;2.60;1.40;;;11.80;99.90;;;;;;4958592;28;20434;-86
2022/12/28 07:36:24;;;;;;;2.05;1.23;;;11.80;99.90;;;;;;4959381;28;20417;-87
2022/12/28 07:38:51;;;;;;;3.40;1.45;;;11.90;99.90;;;;;;4956853;28;20038;-87
2022/12/28 07:41:28;;;;;;;2.85;1.30;;;11.90;99.90;;;;;;4933558;28;20032;-85
2022/12/28 07:43:54;;;;;;;5.60;1.67;;;11.90;99.90;;;;;;4970408;28;20030;-86
2022/12/28 07:46:22;;;;;;;4.55;1.30;;;11.90;99.90;;;;;;4972117;28;20572;-87
2022/12/28 07:48:50;;;;;;;5.03;1.30;;;11.90;99.90;;;;;;4949496;28;20440;-86
2022/12/28 07:51:17;;;;;;;2.72;1.23;;;12.00;99.90;;;;;;4988230;28;20733;-85
2022/12/28 07:53:46;;;;;;;4.13;1.38;;;12.00;99.90;;;;;;4998024;28;20213;-84
2022/12/28 07:56:12;;;;;;;4.23;1.50;;;12.00;99.90;;;;;;4955763;28;20041;-86
2022/12/28 07:58:40;;;;;;;2.50;1.30;;;12.00;99.90;;;;;;4978769;28;20064;-86
2022/12/28 08:01:11;;;;;;;2.35;1.25;;;12.00;99.90;;;;;;4990777;28;20033;-87
2022/12/28 08:03:38;;;;;;;2.90;1.30;;;12.00;99.90;;;;;;4955146;28;20048;-86
2022/12/28 08:06:06;;;;;;;4.70;1.33;;;12.10;99.90;;;;;;4976243;28;20128;-87
2022/12/28 08:08:34;;;;;;;2.73;1.43;;;12.10;99.90;;;;;;4985120;28;20029;-85
2022/12/28 08:11:06;;;;;;;4.03;1.40;;;12.10;99.90;;;;;;4978478;28;20033;-88
2022/12/28 08:13:34;;;;;;;3.45;1.33;;;12.10;99.90;;;;;;4969675;28;20117;-86
2022/12/28 08:16:00;;;;;;;2.00;1.15;;;12.10;99.90;;;;;;4991527;28;20029;-86
2022/12/28 08:18:26;;;;;;;2.93;1.10;;;12.10;99.90;;;;;;4961907;28;20413;-86
2022/12/28 08:20:52;;;;;;;3.78;1.20;;;12.10;99.90;;;;;;4975782;28;20025;-87
2022/12/28 08:23:19;;;;;;;3.13;1.38;;;12.10;99.90;;;;;;4945702;28;20033;-87
2022/12/28 08:25:44;;;;;;;2.70;1.15;;;12.10;99.90;;;;;;4948641;28;20037;-88
2022/12/28 08:28:10;;;;;;;2.07;1.13;;;12.10;99.90;;;;;;4957555;28;20238;-86
2022/12/28 08:30:36;;;;;;;2.75;1.25;;;12.00;99.90;;;;;;4987062;28;20102;-87
2022/12/28 08:33:02;;;;;;;4.97;1.73;;;12.00;99.90;;;;;;4954286;28;20332;-86
2022/12/28 08:35:27;;;;;;;2.40;1.50;;;12.00;99.90;;;;;;4975518;28;20026;-87
2022/12/28 08:37:56;;;;;;;2.70;1.63;;;12.00;99.90;;;;;;4984138;28;20149;-87
2022/12/28 08:40:26;;;;;;;5.75;2.00;;;12.00;99.90;;;;;;4966947;28;20048;-86
2022/12/28 08:42:55;;;;;;;3.70;1.67;;;12.00;99.90;;;;;;4944492;28;20393;-86
2022/12/28 08:45:21;;;;;;;2.47;1.50;;;11.90;99.90;;;;;;4976295;28;20698;-87
2022/12/28 08:47:47;;;;;;;3.33;1.60;;;11.90;99.90;;;;;;4975592;28;20040;-87
2022/12/28 08:50:13;;;;;;;2.92;1.20;;;11.90;99.90;;;;;;4964556;28;20041;-85
2022/12/28 08:52:38;;;;;;;3.90;1.40;;;11.90;99.90;;;;;;4973253;28;23118;-85
2022/12/28 08:55:04;;;;;;;2.20;1.50;;;11.80;99.90;;;;;;4992698;28;20025;-87
2022/12/28 08:57:32;;;;;;;2.47;1.30;;;11.80;99.90;;;;;;4962920;28;20021;-87
2022/12/28 08:59:58;;;;;;;2.38;1.50;;;11.70;99.90;;;;;;4953643;28;20026;-86
2022/12/28 09:02:24;;;;;;;2.10;1.20;;;11.70;99.90;;;;;;4990456;28;20087;-86
2022/12/28 09:04:49;;;;;;;2.00;1.30;;;11.70;99.90;;;;;;4973148;28;20052;-87
2022/12/28 09:07:15;;;;;;;2.08;1.30;;;11.70;99.90;;;;;;4989645;28;20035;-86
2022/12/28 09:09:41;;;;;;;1.83;1.20;;;11.60;99.90;;;;;;4971650;28;20041;-88
2022/12/28 09:12:07;;;;;;;4.35;1.80;;;11.60;99.90;;;;;;4961568;28;20329;-86
2022/12/28 09:14:32;;;;;;;2.55;1.50;;;11.50;99.90;;;;;;4987890;28;20580;-86
2022/12/28 09:16:59;;;;;;;2.20;1.30;;;11.50;99.90;;;;;;4984975;28;20148;-86
2022/12/28 09:19:25;;;;;;;4.40;1.80;;;11.50;99.90;;;;;;4959615;28;20032;-87
2022/12/28 09:21:54;;;;;;;3.00;1.27;;;11.50;99.90;;;;;;4966958;28;20343;-87
2022/12/28 09:24:22;;;;;;;4.03;1.52;;;11.50;99.90;;;;;;4969439;28;20076;-88
2022/12/28 09:26:51;;;;;;;3.20;1.50;;;11.50;99.90;;;;;;4947624;28;20436;-85
2022/12/28 09:29:17;;;;;;;4.13;1.90;;;11.50;99.90;;;;;;4958906;28;20121;-86
2022/12/28 09:31:43;;;;;;;2.90;1.80;;;11.50;99.90;;;;;;4999518;28;20026;-86
2022/12/28 09:34:11;;;;;;;3.53;1.90;;;11.50;99.90;;;;;;4987911;28;20061;-87
2022/12/28 09:36:43;;;;;;;2.72;1.85;;;11.50;99.90;;;;;;4954314;28;22433;-86
2022/12/28 09:39:17;;;;;;;3.60;1.80;;;11.50;99.90;;;;;;4971378;28;20073;-87
2022/12/28 09:41:53;;;;;;;4.70;1.80;;;11.50;99.90;;;;;;4977028;28;20032;-88
2022/12/28 09:44:31;;;;;;;3.58;2.20;;;11.50;99.90;;;;;;4965105;28;20076;-87
2022/12/28 09:47:11;;;;;;;2.95;1.80;;;11.50;99.90;;;;;;4977899;28;20087;-86
2022/12/28 09:49:55;;;;;;;4.63;2.10;;;11.50;99.90;;;;;;4975125;28;20052;-86
2022/12/28 09:52:33;;;;;;;3.30;1.70;;;11.50;99.90;;;;;;4946886;28;20041;-87
2022/12/28 09:55:11;;;;;;;3.13;1.70;;;11.50;99.90;;;;;;4992443;28;20029;-87
2022/12/28 09:57:40;;;;;;;3.00;1.88;;;11.50;99.90;;;;;;4969674;28;20099;-85
2022/12/28 10:00:16;;;;;;;3.10;1.60;;;11.50;99.90;;;;;;4963659;28;20194;-86
2022/12/28 10:02:45;;;;;;;5.07;1.88;;;11.50;99.90;;;;;;5000313;28;20087;-86
2022/12/28 10:05:11;;;;;;;2.87;1.63;;;11.50;99.90;;;;;;4969758;28;20107;-87
2022/12/28 10:07:39;;;;;;;2.90;1.75;;;11.50;99.90;;;;;;5005775;28;20033;-87
2022/12/28 10:10:05;;;;;;;5.40;2.60;;;11.50;99.90;;;;;;4945720;28;20811;-86
2022/12/28 10:12:31;;;;;;;4.28;2.05;;;11.60;99.90;;;;;;4990338;28;20554;-86
2022/12/28 10:14:58;;;;;;;4.50;2.03;;;11.50;99.90;;;;;;4966488;28;20042;-88
2022/12/28 10:17:29;;;;;;;4.38;1.73;;;11.50;99.90;;;;;;4971825;28;20490;-86
2022/12/28 10:19:57;;;;;;;3.95;2.00;;;11.50;99.90;;;;;;4977844;28;20057;-87
2022/12/28 10:22:26;;;;;;;2.67;1.50;;;11.50;99.90;;;;;;4990420;28;20030;-87
2022/12/28 10:24:52;;;;;;;3.33;1.55;;;11.60;99.90;;;;;;4956722;28;20037;-87
2022/12/28 10:27:23;;;;;;;3.75;2.10;;;11.50;99.90;;;;;;4987974;28;20589;-88
2022/12/28 10:29:53;;;;;;;3.88;1.90;;;11.60;99.90;;;;;;4979512;28;20021;-88
2022/12/28 10:32:19;;;;;;;2.63;1.60;;;11.60;99.90;;;;;;4940856;28;20492;-86
2022/12/28 10:35:05;;;;;;;2.80;1.80;;;11.60;99.90;;;;;;4976358;28;20385;-86
2022/12/28 10:37:35;;;;;;;3.35;1.70;;;11.60;99.90;;;;;;4956085;28;20309;-85
2022/12/28 10:40:08;;;;;;;3.25;1.80;;;11.60;99.90;;;;;;4967460;28;20386;-84
2022/12/28 10:42:45;;;;;;;4.82;1.90;;;11.60;99.90;;;;;;4969791;28;20152;-86
2022/12/28 10:45:21;;;;;;;2.42;1.33;;;11.60;99.90;;;;;;4987488;28;20022;-87
2022/12/28 10:47:51;;;;;;;4.57;1.70;;;11.60;99.90;;;;;;4948365;28;20372;-86
2022/12/28 10:50:47;;;;;;;2.72;1.63;;;11.60;99.90;;;;;;4974849;28;20082;-85
2022/12/28 10:53:29;;;;;;;4.13;1.73;;;11.70;99.90;;;;;;4975152;28;20022;-86
2022/12/28 10:56:13;;;;;;;3.85;1.40;;;11.60;99.90;;;;;;4949009;28;20155;-87
2022/12/28 10:58:41;;;;;;;2.33;1.25;;;11.70;99.90;;;;;;4966399;28;20411;-85
2022/12/28 11:01:26;;;;;;;5.73;1.80;;;11.70;99.90;;;;;;4976132;28;20033;-86
2022/12/28 11:03:59;;;;;;;2.88;1.42;;;11.70;99.90;;;;;;4956940;28;20025;-87
2022/12/28 11:06:34;;;;;;;2.80;1.50;;;11.70;99.90;;;;;;4977234;28;20042;-86
2022/12/28 11:09:05;;;;;;;3.13;1.40;;;11.70;99.90;;;;;;4969994;28;20033;-87
2022/12/28 11:11:32;;;;;;;2.25;1.30;;;11.70;99.90;;;;;;4974235;28;20044;-85
2022/12/28 11:14:05;;;;;;;2.17;1.20;;;11.70;99.90;;;;;;4976894;28;20174;-85
2022/12/28 11:16:35;;;;;;;3.25;1.40;;;11.70;99.90;;;;;;4987702;28;20079;-85
2022/12/28 11:19:01;;;;;;;3.53;1.63;;;11.70;99.90;;;;;;4942131;28;20066;-86
2022/12/28 11:21:32;;;;;;;3.20;1.40;;;11.70;99.90;;;;;;4991569;28;20059;-87
2022/12/28 11:23:58;;;;;;;2.92;1.33;;;11.80;99.90;;;;;;4985547;28;20033;-87
2022/12/28 11:26:27;;;;;;;3.17;1.40;;;11.80;99.90;;;;;;4983796;28;20025;-87
2022/12/28 11:28:53;;;;;;;3.90;1.60;;;11.90;99.90;;;;;;4953860;28;20229;-87
2022/12/28 11:31:34;;;;;;;3.05;1.55;;;11.90;99.90;;;;;;4968479;28;20120;-87
2022/12/28 11:34:03;;;;;;;3.35;1.42;;;11.90;99.90;;;;;;4964742;28;20415;-86
2022/12/28 11:36:31;;;;;;;3.38;1.60;;;12.00;99.90;;;;;;4975852;28;20469;-85
2022/12/28 11:38:57;;;;;;;3.70;1.47;;;12.00;99.90;;;;;;4992890;28;20246;-85
2022/12/28 11:41:23;;;;;;;3.90;1.65;;;12.10;99.90;;;;;;5002267;28;20033;-87
2022/12/28 11:43:54;;;;;;;2.03;1.27;;;12.10;99.90;;;;;;4969611;28;20038;-87
2022/12/28 11:46:23;;;;;;;3.17;1.30;;;12.10;99.90;;;;;;4993752;28;20481;-86
2022/12/28 11:49:16;;;;;;;4.30;1.58;;;12.20;99.90;;;;;;4966910;28;20112;-86
2022/12/28 11:51:42;;;;;;;3.22;1.30;;;12.20;99.90;;;;;;4949499;28;20045;-86
2022/12/28 11:54:37;;;;;;;4.47;1.40;;;12.20;99.90;;;;;;4969984;28;20038;-88
2022/12/28 11:57:06;;;;;;;3.60;1.50;;;12.30;99.90;;;;;;4968103;28;20382;-87
2022/12/28 11:59:34;;;;;;;4.53;1.60;;;12.30;99.90;;;;;;4951441;28;20103;-87
2022/12/28 12:02:26;;;;;;;2.72;1.33;;;12.30;99.90;;;;;;5016187;28;20104;-86
2022/12/28 12:04:52;;;;;;;3.03;1.50;;;12.30;99.90;;;;;;4971324;28;20037;-87
2022/12/28 12:07:22;;;;;;;6.53;1.80;;;12.30;99.90;;;;;;4975382;28;20057;-86
2022/12/28 12:10:08;;;;;;;2.60;1.50;;;12.30;99.90;;;;;;4983262;28;20040;-87
2022/12/28 12:12:45;;;;;;;4.63;1.83;;;12.40;99.90;;;;;;4978330;28;20133;-87
2022/12/28 12:15:18;;;;;;;4.57;1.58;;;12.30;99.90;;;;;;4960210;28;20020;-87
2022/12/28 12:17:46;;;;;;;4.10;1.43;;;12.40;99.90;;;;;;5008916;28;20079;-88
2022/12/28 12:20:43;;;;;;;3.92;1.58;;;12.40;99.90;;;;;;4978162;28;20034;-88
2022/12/28 12:23:16;;;;;;;3.45;1.70;;;12.40;99.90;;;;;;4963997;28;20165;-87
2022/12/28 12:25:47;;;;;;;1.60;1.25;;;12.40;99.90;;;;;;4984356;28;20013;-88
2022/12/28 12:28:45;;;;;;;3.60;1.65;;;12.40;99.90;;;;;;4982881;28;20035;-86
2022/12/28 12:31:24;;;;;;;3.53;1.47;;;12.40;99.90;;;;;;4989926;28;20371;-85
2022/12/28 12:33:52;;;;;;;3.45;1.52;;;12.40;99.90;;;;;;4997000;28;20088;-87
2022/12/28 12:36:50;;;;;;;3.55;1.58;;;12.40;99.90;;;;;;4974077;28;20051;-87
2022/12/28 12:39:40;;;;;;;5.20;1.70;;;12.40;99.90;;;;;;4987989;28;20116;-87
2022/12/28 12:42:06;;;;;;;3.47;1.50;;;12.50;99.90;;;;;;4978211;28;20038;-87
2022/12/28 12:44:58;;;;;;;3.83;1.50;;;12.40;99.90;;;;;;4954221;28;26066;-86
2022/12/28 12:47:37;;;;;;;3.53;1.50;;;12.40;99.90;;;;;;4990428;28;20112;-86
2022/12/28 12:50:40;;;;;;;3.17;1.40;;;12.40;99.90;;;;;;4968868;28;20035;-87
2022/12/28 12:53:31;;;;;;;4.45;1.63;;;12.40;99.90;;;;;;4956912;28;20033;-87
2022/12/28 12:56:03;;;;;;;5.55;2.10;;;12.40;99.90;;;;;;4974547;28;20135;-86
2022/12/28 12:58:50;;;;;;;3.23;1.50;;;12.40;99.90;;;;;;4939362;28;20034;-87
2022/12/28 13:01:43;;;;;;;3.15;1.55;;;12.40;99.90;;;;;;4939187;28;20069;-87
2022/12/28 13:04:20;;;;;;;5.20;1.70;;;12.40;99.90;;;;;;4984700;28;20145;-88
2022/12/28 13:06:46;;;;;;;4.72;1.80;;;12.50;99.90;;;;;;4959996;28;20661;-88
2022/12/28 13:09:18;;;;;;;6.00;1.50;;;12.50;99.90;;;;;;4939606;28;20030;-87
2022/12/28 13:11:44;;;;;;;4.00;1.73;;;12.50;99.90;;;;;;4970761;28;20354;-87
2022/12/28 13:14:19;;;;;;;3.10;1.60;;;12.50;99.90;;;;;;4949349;28;20042;-86
2022/12/28 13:16:54;;;;;;;3.05;1.45;;;12.60;99.90;;;;;;4930766;28;21051;-88
2022/12/28 13:19:30;;;;;;;2.90;1.67;;;12.60;99.90;;;;;;4969834;28;20041;-87
2022/12/28 13:21:57;;;;;;;4.40;1.50;;;12.60;99.90;;;;;;4957347;28;20018;-88
2022/12/28 13:24:33;;;;;;;2.97;1.20;;;12.70;99.90;;;;;;4943559;28;20466;-86
2022/12/28 13:26:59;;;;;;;3.28;1.40;;;12.70;99.90;;;;;;4960006;28;20105;-87
2022/12/28 13:29:31;;;;;;;2.83;1.58;;;12.70;99.90;;;;;;4946561;28;20037;-88